Time;durP1;ratioP1;P1;durP2;ratioP2;P2;SDS_P1;SDS_P2;PMS_P1;PMS_P2;Temp;Humidity;BMP_temperature;BMP_pressure;BME280_temperature;BME280_humidity;BME280_pressure;Samples;Min_cycle;Max_cycle;Signal;HPM_P1;HPM_P2
2022/09/18 00:01:59;;;;;;;3.03;1.10;;;;;;;10.89;100.00;101539.59;4952535;28;20027;-65
2022/09/18 00:04:26;;;;;;;3.38;1.33;;;;;;;10.89;100.00;101537.75;4951623;28;20139;-65
2022/09/18 00:06:51;;;;;;;4.10;1.00;;;;;;;10.87;100.00;101536.25;4952742;29;20374;-64
2022/09/18 00:09:17;;;;;;;2.88;1.13;;;;;;;10.85;100.00;101533.78;4952353;28;20035;-65
2022/09/18 00:11:46;;;;;;;5.72;2.30;;;;;;;10.81;100.00;101531.66;4952539;28;20054;-64
2022/09/18 00:14:14;;;;;;;7.82;1.25;;;;;;;10.81;100.00;101524.47;4952379;28;20023;-64
2022/09/18 00:16:40;;;;;;;1.75;1.10;;;;;;;10.79;100.00;101523.81;4952441;29;20059;-64
2022/09/18 00:19:05;;;;;;;2.85;0.80;;;;;;;10.78;100.00;101521.34;4952123;29;20459;-65
2022/09/18 00:21:31;;;;;;;5.63;0.88;;;;;;;10.77;100.00;101517.00;4952355;29;20027;-64
2022/09/18 00:23:59;;;;;;;6.68;1.10;;;;;;;10.77;100.00;101531.22;4953142;28;20023;-64
2022/09/18 00:26:25;;;;;;;5.72;1.42;;;;;;;10.78;100.00;101532.03;4952162;28;20023;-64
2022/09/18 00:28:53;;;;;;;6.53;2.03;;;;;;;10.77;100.00;101525.88;4952149;28;20080;-65
2022/09/18 00:31:26;;;;;;;3.83;1.45;;;;;;;10.77;100.00;101525.88;4952001;28;20034;-64
2022/09/18 00:33:53;;;;;;;4.75;1.35;;;;;;;10.77;100.00;101527.69;4951953;29;20475;-65
2022/09/18 00:36:19;;;;;;;7.35;1.65;;;;;;;10.74;100.00;101526.19;4952108;29;20079;-64
2022/09/18 00:38:45;;;;;;;2.47;1.33;;;;;;;10.74;100.00;101527.06;4951653;29;20043;-64
2022/09/18 00:41:33;;;;;;;4.63;2.38;;;;;;;10.77;100.00;101522.34;4934658;29;20046;-64
2022/09/18 00:44:36;;;;;;;3.95;1.15;;;;;;;10.76;100.00;101518.84;4951744;29;20039;-65
2022/09/18 00:47:13;;;;;;;3.45;1.25;;;;;;;10.75;100.00;101528.72;4951200;28;20031;-64
2022/09/18 00:49:53;;;;;;;6.07;1.55;;;;;;;10.78;100.00;101534.69;4951414;29;20035;-64
2022/09/18 00:52:22;;;;;;;2.95;0.95;;;;;;;10.75;100.00;101536.72;4951277;29;20142;-65
2022/09/18 00:54:51;;;;;;;7.70;1.50;;;;;;;10.74;100.00;101539.53;4951503;29;20074;-64
2022/09/18 00:57:26;;;;;;;4.82;1.58;;;;;;;10.73;100.00;101533.38;4951612;28;20031;-64
2022/09/18 00:59:53;;;;;;;4.35;1.48;;;;;;;10.75;100.00;101531.38;4951451;29;20035;-65
2022/09/18 01:02:19;;;;;;;8.02;1.40;;;;;;;10.76;100.00;101532.19;4951629;29;20027;-64
2022/09/18 01:04:46;;;;;;;7.22;2.45;;;;;;;10.78;100.00;101529.34;4951464;29;20038;-64
2022/09/18 01:07:38;;;;;;;5.00;1.30;;;;;;;10.77;100.00;101525.00;4951618;28;20051;-65
2022/09/18 01:10:28;;;;;;;5.68;1.90;;;;;;;10.77;100.00;101533.03;4933222;29;20487;-64
2022/09/18 01:12:55;;;;;;;4.50;1.52;;;;;;;10.77;100.00;101525.88;4933089;29;20122;-64
2022/09/18 01:15:23;;;;;;;4.90;1.58;;;;;;;10.77;100.00;101531.22;4932795;29;20094;-64
2022/09/18 01:18:19;;;;;;;2.67;1.48;;;;;;;10.77;100.00;101531.22;4932831;29;20155;-64
2022/09/18 01:20:51;;;;;;;7.28;1.55;;;;;;;10.77;100.00;101531.22;4950454;29;20079;-64
2022/09/18 01:23:59;;;;;;;4.47;1.50;;;;;;;10.75;100.00;101530.56;4951099;29;20043;-64
2022/09/18 01:26:43;;;;;;;6.70;2.10;;;;;;;10.74;100.00;101529.72;4932869;29;20031;-64
2022/09/18 01:29:41;;;;;;;7.70;1.63;;;;;;;10.76;100.00;101532.19;4932929;29;20059;-64
2022/09/18 01:32:36;;;;;;;3.55;1.08;;;;;;;10.74;100.00;101527.06;4927182;29;20044;-64
2022/09/18 01:35:20;;;;;;;4.43;1.00;;;;;;;10.73;100.00;101524.56;4950983;28;20490;-64
2022/09/18 01:37:56;;;;;;;5.60;2.10;;;;;;;10.76;100.00;101529.53;4950933;29;20062;-64
2022/09/18 01:40:55;;;;;;;5.28;1.38;;;;;;;10.76;100.00;101529.53;4951185;29;20114;-65
2022/09/18 01:43:24;;;;;;;10.45;3.90;;;;;;;10.74;100.00;101523.53;4925423;28;20126;-64
2022/09/18 01:45:54;;;;;;;4.63;1.02;;;;;;;10.70;100.00;101520.41;4950979;29;20062;-64
2022/09/18 01:48:27;;;;;;;5.40;1.17;;;;;;;10.74;100.00;101516.38;4950988;29;20042;-64
2022/09/18 01:50:57;;;;;;;8.25;3.35;;;;;;;10.72;100.00;101520.25;4950901;29;20118;-64
2022/09/18 01:53:29;;;;;;;9.85;1.85;;;;;;;10.72;100.00;101507.72;4950504;29;20031;-64
2022/09/18 01:56:10;;;;;;;4.22;1.77;;;;;;;10.71;100.00;101513.22;4950401;29;20483;-64
2022/09/18 01:58:36;;;;;;;3.17;1.10;;;;;;;10.72;100.00;101514.91;4950904;29;20110;-64
2022/09/18 02:01:08;;;;;;;4.55;1.02;;;;;;;10.70;100.00;101509.75;4950766;28;20122;-64
2022/09/18 02:03:44;;;;;;;5.47;1.85;;;;;;;10.65;100.00;101495.28;4932462;29;20531;-64
2022/09/18 02:06:25;;;;;;;4.15;1.17;;;;;;;10.70;100.00;101503.59;4932546;29;20035;-64
2022/09/18 02:08:53;;;;;;;4.13;1.40;;;;;;;10.70;100.00;101507.06;4936638;29;20079;-65
2022/09/18 02:11:20;;;;;;;6.53;2.05;;;;;;;10.71;100.00;101515.91;4950328;28;20045;-64
2022/09/18 02:13:52;;;;;;;0.90;0.90;;;;;;;10.73;100.00;101511.22;4950468;29;20486;-65
2022/09/18 02:16:28;;;;;;;4.18;1.63;;;;;;;10.70;100.00;101499.06;4950595;29;20039;-64
2022/09/18 02:18:56;;;;;;;7.07;1.13;;;;;;;10.70;100.00;101504.41;4950352;29;20050;-64
2022/09/18 02:21:26;;;;;;;4.68;0.80;;;;;;;10.67;100.00;101501.28;4950667;29;20062;-65
2022/09/18 02:23:56;;;;;;;2.80;0.90;;;;;;;10.68;100.00;101498.41;4950643;28;20054;-65
2022/09/18 02:26:22;;;;;;;5.65;1.25;;;;;;;10.67;100.00;101496.78;4950479;28;20554;-69
2022/09/18 02:28:49;;;;;;;2.80;1.00;;;;;;;10.64;100.00;101494.47;4953709;29;20043;-69
2022/09/18 02:31:15;;;;;;;9.00;1.67;;;;;;;10.68;100.00;101494.94;4954384;29;20035;-69
2022/09/18 02:33:40;;;;;;;8.02;2.03;;;;;;;10.70;100.00;101495.56;4954213;29;20117;-69
2022/09/18 02:36:15;;;;;;;6.50;2.30;;;;;;;10.70;100.00;101498.25;4954154;29;20035;-69
2022/09/18 02:38:53;;;;;;;5.75;2.38;;;;;;;10.68;100.00;101492.25;4953842;29;20046;-69
2022/09/18 02:42:05;;;;;;;7.80;2.80;;;;;;;10.72;100.00;101496.22;4954008;29;20031;-69
2022/09/18 02:44:49;;;;;;;7.30;3.53;;;;;;;10.71;100.00;101495.38;4928995;29;20047;-69
2022/09/18 02:47:28;;;;;;;3.13;2.17;;;;;;;10.71;100.00;101489.22;4953953;29;20114;-69
2022/09/18 02:50:06;;;;;;;7.50;3.33;;;;;;;10.72;100.00;101490.91;4953905;28;20055;-69
2022/09/18 02:52:39;;;;;;;9.27;2.80;;;;;;;10.70;100.00;101484.91;4955027;29;20031;-69
2022/09/18 02:55:16;;;;;;;5.28;2.47;;;;;;;10.69;100.00;101480.59;4953349;28;20118;-69
2022/09/18 02:57:52;;;;;;;5.03;2.85;;;;;;;10.63;100.00;101476.78;4936175;29;20046;-69
2022/09/18 03:00:18;;;;;;;9.75;3.00;;;;;;;10.68;100.00;101487.75;4953757;29;20054;-69
2022/09/18 03:02:44;;;;;;;5.95;2.85;;;;;;;10.69;100.00;101480.59;4953699;29;20483;-69
2022/09/18 03:05:12;;;;;;;9.05;2.70;;;;;;;10.70;100.00;101482.25;4953784;28;20054;-69
2022/09/18 03:07:37;;;;;;;9.32;3.47;;;;;;;10.71;100.00;101475.88;4953734;29;20063;-69
2022/09/18 03:10:03;;;;;;;7.57;3.22;;;;;;;10.70;100.00;101474.25;4953439;28;20738;-70
2022/09/18 03:12:28;;;;;;;2.50;2.30;;;;;;;10.71;100.00;101470.53;4953508;29;20039;-69
2022/09/18 03:14:54;;;;;;;10.93;3.92;;;;;;;10.69;100.00;101469.91;4953393;29;20475;-69
2022/09/18 03:17:19;;;;;;;9.25;2.88;;;;;;;10.69;100.00;101475.25;4953537;29;20097;-69
2022/09/18 03:19:45;;;;;;;5.45;2.38;;;;;;;10.67;100.00;101463.94;4953545;29;20074;-69
2022/09/18 03:22:11;;;;;;;9.68;2.53;;;;;;;10.68;100.00;101469.06;4953395;29;20039;-69
2022/09/18 03:24:36;;;;;;;4.03;3.03;;;;;;;10.60;100.00;101458.47;4953234;29;20027;-69
2022/09/18 03:27:02;;;;;;;9.43;3.05;;;;;;;10.70;100.00;101477.72;4952972;28;20039;-70
2022/09/18 03:29:27;;;;;;;11.57;2.78;;;;;;;10.71;100.00;101476.69;4953300;29;20039;-70
2022/09/18 03:31:53;;;;;;;9.18;2.15;;;;;;;10.73;100.00;101476.53;4953226;29;20486;-70
2022/09/18 03:34:18;;;;;;;2.72;1.60;;;;;;;10.72;100.00;101469.56;4953150;29;20606;-69
2022/09/18 03:36:45;;;;;;;2.80;1.75;;;;;;;10.72;100.00;101464.22;4953140;29;20486;-69
2022/09/18 03:39:11;;;;;;;5.63;1.92;;;;;;;10.73;100.00;101465.88;4953006;28;20038;-69
2022/09/18 03:41:37;;;;;;;10.00;2.92;;;;;;;10.72;100.00;101459.69;4952960;29;20443;-69
2022/09/18 03:44:02;;;;;;;6.13;2.17;;;;;;;10.72;100.00;101454.38;4952920;28;20146;-69
2022/09/18 03:46:28;;;;;;;7.03;2.10;;;;;;;10.72;100.00;101467.72;4952937;29;20510;-69
2022/09/18 03:48:53;;;;;;;6.20;1.90;;;;;;;10.71;100.00;101460.69;4952950;29;20059;-69
2022/09/18 03:51:19;;;;;;;3.53;2.60;;;;;;;10.72;100.00;101459.69;4953029;28;20031;-69
2022/09/18 03:53:46;;;;;;;5.30;1.55;;;;;;;10.72;100.00;101465.03;4952861;29;20094;-69
2022/09/18 03:56:13;;;;;;;3.55;1.40;;;;;;;10.72;100.00;101465.03;4952587;29;20035;-69
2022/09/18 03:58:39;;;;;;;9.77;2.38;;;;;;;10.71;100.00;101468.69;4935433;29;20058;-69
2022/09/18 04:01:05;;;;;;;7.00;1.55;;;;;;;10.74;100.00;101457.69;4943949;29;20118;-69
2022/09/18 04:03:32;;;;;;;7.63;1.83;;;;;;;10.75;100.00;101450.50;4934314;29;20063;-69
2022/09/18 04:05:57;;;;;;;8.57;2.42;;;;;;;10.77;100.00;101445.81;4952114;29;20034;-69
2022/09/18 04:08:22;;;;;;;5.05;1.92;;;;;;;10.76;100.00;101446.81;4952626;28;20039;-69
2022/09/18 04:10:48;;;;;;;4.25;1.60;;;;;;;10.77;100.00;101443.16;4952424;29;20133;-69
2022/09/18 04:13:13;;;;;;;4.38;1.50;;;;;;;10.78;100.00;101441.31;4952459;29;20039;-69
2022/09/18 04:15:39;;;;;;;8.93;2.63;;;;;;;10.78;100.00;101442.13;4952186;28;20035;-69
2022/09/18 04:18:05;;;;;;;10.55;2.28;;;;;;;10.79;100.00;101445.63;4952150;29;20059;-69
2022/09/18 04:20:30;;;;;;;7.05;2.25;;;;;;;10.79;100.00;101450.97;4952290;28;20070;-69
2022/09/18 04:22:58;;;;;;;6.93;1.65;;;;;;;10.80;100.00;101444.63;4952380;29;20039;-69
2022/09/18 04:25:24;;;;;;;4.88;1.90;;;;;;;10.80;100.00;101450.78;4952134;29;20035;-69
2022/09/18 04:27:49;;;;;;;5.88;2.00;;;;;;;10.82;100.00;101454.09;4952481;29;20497;-69
2022/09/18 04:30:15;;;;;;;5.80;1.55;;;;;;;10.82;100.00;101451.44;4952216;28;20031;-69
2022/09/18 04:32:41;;;;;;;4.93;1.40;;;;;;;10.83;100.00;101455.75;4952188;29;20086;-69
2022/09/18 04:35:07;;;;;;;8.68;2.33;;;;;;;10.84;100.00;101456.56;4951937;28;20121;-68
2022/09/18 04:37:32;;;;;;;8.57;1.63;;;;;;;10.84;100.00;101451.25;4951993;29;20114;-69
2022/09/18 04:39:57;;;;;;;6.35;1.23;;;;;;;10.85;100.00;101448.41;4951729;28;20049;-69
2022/09/18 04:42:23;;;;;;;6.13;1.33;;;;;;;10.80;100.00;101445.44;4951921;29;20069;-69
2022/09/18 04:44:48;;;;;;;4.47;1.50;;;;;;;10.85;100.00;101447.56;4951768;29;20106;-69
2022/09/18 04:47:13;;;;;;;5.30;1.48;;;;;;;10.85;100.00;101458.25;4951787;29;20471;-70
2022/09/18 04:49:39;;;;;;;3.30;1.48;;;;;;;10.85;100.00;101453.75;4951482;28;20363;-69
2022/09/18 04:52:04;;;;;;;3.45;1.42;;;;;;;10.85;100.00;101447.56;4951681;29;20066;-69
2022/09/18 04:54:29;;;;;;;7.40;1.80;;;;;;;10.85;100.00;101453.75;4951619;29;20466;-69
2022/09/18 04:56:55;;;;;;;2.42;1.35;;;;;;;10.84;100.00;101454.72;4951616;29;20058;-69
2022/09/18 04:59:21;;;;;;;6.60;1.40;;;;;;;10.84;100.00;101457.41;4933161;29;20042;-69
2022/09/18 05:01:46;;;;;;;3.50;1.50;;;;;;;10.85;100.00;101447.56;4932997;29;20048;-70
2022/09/18 05:04:11;;;;;;;7.57;1.73;;;;;;;10.86;100.00;101451.88;4933294;29;20032;-70
2022/09/18 05:06:37;;;;;;;5.60;1.50;;;;;;;10.86;100.00;101446.56;4933304;29;20031;-70
2022/09/18 05:09:02;;;;;;;2.65;1.30;;;;;;;10.82;100.00;101434.56;4932998;29;20110;-70
2022/09/18 05:11:28;;;;;;;1.67;1.38;;;;;;;10.84;100.00;101443.22;4951522;29;20487;-70
2022/09/18 05:13:55;;;;;;;11.13;2.67;;;;;;;10.82;100.00;101450.59;4951333;29;20137;-70
2022/09/18 05:16:22;;;;;;;5.72;1.25;;;;;;;10.81;100.00;101454.28;4951443;29;20118;-70
2022/09/18 05:18:49;;;;;;;2.00;0.98;;;;;;;10.81;100.00;101452.44;4951042;28;20047;-70
2022/09/18 05:21:14;;;;;;;6.07;1.70;;;;;;;10.77;100.00;101445.81;4951237;29;20438;-70
2022/09/18 05:23:41;;;;;;;3.30;1.33;;;;;;;10.82;100.00;101463.94;4951528;28;20031;-70
2022/09/18 05:26:06;;;;;;;4.00;1.30;;;;;;;10.80;100.00;101445.44;4950865;28;20086;-70
2022/09/18 05:28:32;;;;;;;6.60;1.38;;;;;;;10.77;100.00;101443.16;4951037;29;20031;-71
2022/09/18 05:30:59;;;;;;;6.03;1.08;;;;;;;10.82;100.00;101450.59;4951035;29;20195;-70
2022/09/18 05:33:25;;;;;;;3.60;1.65;;;;;;;10.81;100.00;101451.63;4950942;28;20046;-70
2022/09/18 05:35:53;;;;;;;3.28;1.73;;;;;;;10.84;100.00;101448.56;4933872;29;20035;-70
2022/09/18 05:38:18;;;;;;;8.43;3.40;;;;;;;10.85;100.00;101450.25;4950763;29;20039;-70
2022/09/18 05:40:44;;;;;;;9.13;1.65;;;;;;;10.82;100.00;101442.59;4950825;28;20494;-70
2022/09/18 05:43:09;;;;;;;4.30;1.15;;;;;;;10.86;100.00;101451.88;4950943;29;20166;-70
2022/09/18 05:45:34;;;;;;;11.88;1.35;;;;;;;10.87;100.00;101450.88;4950883;29;20050;-71
2022/09/18 05:48:03;;;;;;;5.80;1.52;;;;;;;10.88;100.00;101449.88;4950708;29;20035;-71
2022/09/18 05:50:30;;;;;;;3.42;1.02;;;;;;;10.86;100.00;101454.56;4950836;29;20024;-71
2022/09/18 05:53:05;;;;;;;3.60;0.90;;;;;;;10.79;100.00;101437.63;4951023;29;20027;-70
2022/09/18 05:55:30;;;;;;;6.72;1.33;;;;;;;10.92;100.00;101464.50;4950746;29;20533;-70
2022/09/18 05:57:57;;;;;;;1.88;0.82;;;;;;;10.93;100.00;101476.84;4932096;29;20122;-70
2022/09/18 06:00:24;;;;;;;3.58;1.40;;;;;;;10.94;100.00;101470.47;4932114;29;20036;-70
2022/09/18 06:02:59;;;;;;;5.85;1.13;;;;;;;10.94;100.00;101465.97;4934001;29;20044;-70
2022/09/18 06:05:25;;;;;;;3.17;1.02;;;;;;;10.98;100.00;101458.44;4936495;29;20027;-70
2022/09/18 06:07:51;;;;;;;6.53;1.23;;;;;;;10.99;100.00;101456.59;4936080;29;20066;-70
2022/09/18 06:10:18;;;;;;;5.53;1.30;;;;;;;11.01;100.00;101463.41;4936484;29;20068;-70
2022/09/18 06:12:44;;;;;;;2.75;0.88;;;;;;;11.02;100.00;101465.03;4954575;28;20031;-70
2022/09/18 06:15:10;;;;;;;4.28;0.93;;;;;;;11.08;100.00;101456.31;4954422;29;20403;-70
2022/09/18 06:17:36;;;;;;;5.63;1.20;;;;;;;11.10;100.00;101456.13;4954568;29;20034;-70
2022/09/18 06:20:02;;;;;;;2.42;1.10;;;;;;;11.10;100.00;101446.25;4954370;29;20141;-70
2022/09/18 06:22:27;;;;;;;3.58;1.52;;;;;;;11.12;100.00;101448.75;4954464;29;20097;-70
2022/09/18 06:24:53;;;;;;;5.50;1.08;;;;;;;11.14;100.00;101444.88;4954291;29;20435;-70
2022/09/18 06:27:18;;;;;;;4.07;1.23;;;;;;;11.16;100.00;101436.69;4954336;28;20114;-70
2022/09/18 06:29:43;;;;;;;3.63;1.65;;;;;;;11.22;100.00;101429.78;4954245;28;20054;-70
2022/09/18 06:32:09;;;;;;;6.32;1.17;;;;;;;11.26;100.00;101426.53;4954288;29;20067;-70
2022/09/18 06:34:34;;;;;;;9.90;1.25;;;;;;;11.31;100.00;101424.13;4954168;29;20126;-70
2022/09/18 06:37:00;;;;;;;5.13;1.40;;;;;;;11.31;100.00;101434.81;4954171;29;20031;-70
2022/09/18 06:39:25;;;;;;;3.90;0.88;;;;;;;11.33;100.00;101424.78;4954508;29;20075;-70
2022/09/18 06:41:51;;;;;;;12.40;2.35;;;;;;;11.41;100.00;101435.34;4954082;28;20084;-70
2022/09/18 06:44:16;;;;;;;4.40;1.48;;;;;;;11.45;100.00;101426.97;4953964;29;20106;-70
2022/09/18 06:46:41;;;;;;;2.78;1.00;;;;;;;11.50;100.00;101437.91;4953629;29;20113;-70
2022/09/18 06:49:07;;;;;;;9.45;2.45;;;;;;;11.53;100.00;101432.22;4953978;28;20046;-70
2022/09/18 06:51:32;;;;;;;5.70;1.00;;;;;;;11.56;100.00;101440.66;4953947;29;20557;-70
2022/09/18 06:53:57;;;;;;;9.27;1.20;;;;;;;11.54;100.00;101447.22;4953986;29;20031;-70
2022/09/18 06:56:23;;;;;;;4.95;1.55;;;;;;;11.51;100.00;101455.59;4953875;29;20035;-71
2022/09/18 06:58:51;;;;;;;16.45;2.22;;;;;;;11.45;100.00;101440.31;4953634;29;20129;-70
2022/09/18 07:01:17;;;;;;;3.58;1.40;;;;;;;11.37;100.00;101449.25;4953504;29;20030;-71
2022/09/18 07:03:42;;;;;;;6.22;1.33;;;;;;;11.29;100.00;101444.88;4936214;29;20062;-70
2022/09/18 07:06:09;;;;;;;4.57;1.25;;;;;;;11.28;100.00;101443.22;4953253;29;20395;-71
2022/09/18 07:08:34;;;;;;;4.07;1.00;;;;;;;11.26;100.00;101439.88;4953308;28;20031;-70
2022/09/18 07:11:01;;;;;;;9.45;2.55;;;;;;;11.26;100.00;101442.56;4953537;29;20098;-70
2022/09/18 07:13:30;;;;;;;3.45;0.80;;;;;;;11.25;100.00;101432.91;4953281;28;20435;-70
2022/09/18 07:15:56;;;;;;;6.03;1.15;;;;;;;11.21;100.00;101444.97;4953628;28;20027;-71
2022/09/18 07:18:22;;;;;;;6.85;1.40;;;;;;;11.24;100.00;101451.75;4953223;29;20538;-70
2022/09/18 07:20:47;;;;;;;2.95;0.85;;;;;;;11.22;100.00;101456.50;4953259;29;20086;-70
2022/09/18 07:23:13;;;;;;;2.97;0.90;;;;;;;11.22;100.00;101445.81;4953372;29;20035;-74
2022/09/18 07:25:38;;;;;;;4.60;0.80;;;;;;;11.22;100.00;101446.63;4953270;29;20467;-73
2022/09/18 07:28:09;;;;;;;7.47;2.47;;;;;;;11.16;100.00;101434.84;4953117;29;20035;-67
2022/09/18 07:30:35;;;;;;;6.63;1.95;;;;;;;11.21;100.00;101446.81;4953015;29;20477;-66
2022/09/18 07:33:01;;;;;;;3.40;0.90;;;;;;;11.22;100.00;101433.28;4938721;28;20046;-67
2022/09/18 07:35:27;;;;;;;4.00;1.27;;;;;;;11.21;100.00;101414.75;4938326;28;20050;-67
2022/09/18 07:37:57;;;;;;;2.17;1.20;;;;;;;11.30;100.00;101425.16;4937823;28;20035;-66
2022/09/18 07:40:23;;;;;;;7.35;1.63;;;;;;;11.35;100.00;101438.78;4938354;28;20612;-66
2022/09/18 07:42:48;;;;;;;7.93;2.20;;;;;;;11.39;100.00;101424.03;4937320;28;20031;-67
2022/09/18 07:45:13;;;;;;;3.92;1.52;;;;;;;11.48;100.00;101422.09;4934782;29;20502;-66
2022/09/18 07:47:39;;;;;;;10.38;2.60;;;;;;;11.57;100.00;101420.13;4934731;29;20043;-66
2022/09/18 07:50:04;;;;;;;4.68;1.52;;;;;;;11.67;100.00;101420.63;4934533;29;20031;-67
2022/09/18 07:52:30;;;;;;;9.40;1.63;;;;;;;11.74;100.00;101420.72;4934956;29;20040;-67
2022/09/18 07:54:55;;;;;;;1.65;1.33;;;;;;;11.77;100.00;101415.81;4917016;29;20106;-66
2022/09/18 07:57:21;;;;;;;3.10;1.90;;;;;;;11.80;100.00;101423.44;4934338;29;20031;-66
2022/09/18 07:59:47;;;;;;;3.25;1.50;;;;;;;11.81;100.00;101422.41;4952414;28;20031;-66
2022/09/18 08:02:12;;;;;;;2.92;1.67;;;;;;;11.83;100.00;101431.06;4952331;29;20492;-66
2022/09/18 08:04:38;;;;;;;6.65;2.50;;;;;;;11.82;100.00;101424.09;4952546;28;20030;-66
2022/09/18 08:07:03;;;;;;;5.78;2.50;;;;;;;11.83;100.00;101436.41;4951947;28;20061;-66
2022/09/18 08:09:28;;;;;;;5.05;1.80;;;;;;;11.82;100.00;101429.44;4938500;29;20114;-67
2022/09/18 08:11:54;;;;;;;7.53;1.73;;;;;;;11.85;100.00;101429.03;4934012;29;20074;-67
2022/09/18 08:14:20;;;;;;;7.40;3.08;;;;;;;11.89;100.00;101418.81;4934027;29;20148;-66
2022/09/18 08:16:45;;;;;;;10.25;2.85;;;;;;;11.85;100.00;101438.91;4934041;29;20038;-66
2022/09/18 08:19:11;;;;;;;9.73;2.45;;;;;;;11.84;100.00;101446.09;4933693;29;20763;-66
2022/09/18 08:21:37;;;;;;;6.85;2.47;;;;;;;11.87;100.00;101438.72;4934064;29;20369;-66
2022/09/18 08:24:02;;;;;;;5.47;2.28;;;;;;;11.92;100.00;101429.16;4951834;28;20035;-66
2022/09/18 08:26:28;;;;;;;2.95;2.30;;;;;;;11.98;100.00;101420.34;4951438;29;20023;-67
2022/09/18 08:28:53;;;;;;;3.95;2.53;;;;;;;12.15;100.00;101426.25;4933696;29;20475;-67
2022/09/18 08:31:19;;;;;;;9.02;3.38;;;;;;;12.21;100.00;101428.16;4933803;29;20042;-66
2022/09/18 08:33:44;;;;;;;8.70;2.80;;;;;;;12.34;100.00;101424.78;4933797;29;20027;-66
2022/09/18 08:36:09;;;;;;;6.43;2.63;;;;;;;12.42;100.00;101429.97;4933664;29;20526;-66
2022/09/18 08:38:35;;;;;;;10.25;3.78;;;;;;;12.51;100.00;101433.31;4934708;29;20067;-67
2022/09/18 08:41:11;;;;;;;7.50;2.80;;;;;;;12.57;100.00;101426.38;4951650;29;20031;-66
2022/09/18 08:44:07;;;;;;;5.85;2.65;;;;;;;12.68;100.00;101432.00;4950471;28;20032;-66
2022/09/18 08:46:44;;;;;;;8.10;2.78;;;;;;;12.75;100.00;101420.50;4933570;29;20118;-67
2022/09/18 08:49:23;;;;;;;3.92;2.08;;;;;;;12.77;100.00;101427.31;4936859;29;20031;-67
2022/09/18 08:52:21;;;;;;;4.72;2.72;;;;;;;12.86;100.00;101428.84;4933483;29;20031;-67
2022/09/18 08:55:11;;;;;;;8.82;2.67;;;;;;;12.95;100.00;101421.44;4951595;29;20024;-67
2022/09/18 08:57:43;;;;;;;3.28;2.17;;;;;;;12.91;100.00;101417.50;4951605;29;20057;-66
2022/09/18 09:00:14;;;;;;;3.60;2.17;;;;;;;12.92;100.00;101432.56;4951495;29;20057;-66
2022/09/18 09:02:44;;;;;;;7.03;3.08;;;;;;;12.89;100.00;101416.88;4951146;29;20035;-66
2022/09/18 09:05:13;;;;;;;5.95;1.77;;;;;;;12.86;100.00;101409.25;4951517;29;20065;-66
2022/09/18 09:07:56;;;;;;;3.25;1.40;;;;;;;12.89;100.00;101414.19;4951124;29;20024;-65
2022/09/18 09:10:34;;;;;;;5.03;1.50;;;;;;;13.00;100.00;101419.00;4950703;29;20168;-65
2022/09/18 09:13:24;;;;;;;4.68;1.50;;;;;;;13.07;100.00;101416.34;4951277;29;20106;-65
2022/09/18 09:15:55;;;;;;;4.05;2.63;;;;;;;13.08;100.00;101423.38;4951336;29;20163;-65
2022/09/18 09:18:46;;;;;;;4.07;1.80;;;;;;;13.08;100.00;101426.06;4951365;28;20150;-65
2022/09/18 09:21:21;;;;;;;4.07;1.55;;;;;;;13.00;100.00;101423.53;4916796;29;20043;-65
2022/09/18 09:24:19;;;;;;;8.43;2.13;;;;;;;12.97;100.00;101429.28;4951074;28;20709;-65
2022/09/18 09:26:47;;;;;;;4.35;1.38;;;;;;;12.88;100.00;101425.94;4951017;28;20023;-64
2022/09/18 09:29:20;;;;;;;4.05;1.10;;;;;;;12.77;100.00;101423.81;4950970;29;20090;-65
2022/09/18 09:31:54;;;;;;;7.43;1.77;;;;;;;12.71;100.00;101420.09;4939622;29;20038;-66
2022/09/18 09:34:29;;;;;;;3.17;1.23;;;;;;;12.70;100.00;101416.56;4939941;28;20081;-65
2022/09/18 09:36:59;;;;;;;3.03;1.30;;;;;;;12.75;100.00;101415.16;4936223;28;20078;-66
2022/09/18 09:39:46;;;;;;;2.13;1.50;;;;;;;12.77;100.00;101427.31;4935921;28;20040;-66
2022/09/18 09:42:27;;;;;;;6.45;1.85;;;;;;;12.80;100.00;101420.75;4936452;28;20019;-66
2022/09/18 09:45:08;;;;;;;2.40;1.80;;;;;;;12.85;100.00;101419.13;4935789;28;20023;-66
2022/09/18 09:48:03;;;;;;;1.98;1.20;;;;;;;12.88;100.00;101431.28;4936420;28;20081;-66
2022/09/18 09:50:36;;;;;;;6.38;1.40;;;;;;;12.88;100.00;101412.56;4935292;28;20058;-67
2022/09/18 09:53:06;;;;;;;4.13;1.50;;;;;;;12.91;100.00;101412.16;4936904;28;20521;-66
2022/09/18 09:55:57;;;;;;;1.05;0.93;;;;;;;12.89;100.00;101407.00;4936813;28;20043;-66
2022/09/18 09:58:51;;;;;;;5.43;1.30;;;;;;;12.94;100.00;101406.41;4936447;28;20038;-67
2022/09/18 10:01:42;;;;;;;4.78;1.13;;;;;;;12.92;100.00;101392.41;4935760;28;20515;-66
2022/09/18 10:04:10;;;;;;;3.65;2.17;;;;;;;12.93;100.00;101384.16;4935221;28;20028;-66
2022/09/18 10:06:47;;;;;;;1.92;0.70;;;;;;;13.01;100.00;101387.69;4935335;28;20027;-65
2022/09/18 10:09:24;;;;;;;5.85;0.80;;;;;;;13.10;100.00;101384.66;4935783;28;20094;-66
2022/09/18 10:12:01;;;;;;;3.30;0.80;;;;;;;13.19;100.00;101381.78;4936081;28;20067;-65
2022/09/18 10:14:32;;;;;;;5.03;0.82;;;;;;;13.24;100.00;101382.84;4917445;28;20049;-65
2022/09/18 10:17:00;;;;;;;4.30;1.58;;;;;;;13.30;99.52;101386.59;4935753;28;20120;-66
2022/09/18 10:19:35;;;;;;;5.00;1.40;;;;;;;13.40;98.39;101380.88;4935658;28;20047;-65
2022/09/18 10:22:04;;;;;;;2.03;0.73;;;;;;;13.48;98.06;101378.81;4936584;28;20028;-66
2022/09/18 10:24:55;;;;;;;3.53;1.05;;;;;;;13.54;98.81;101383.34;4935533;28;20111;-66
2022/09/18 10:27:21;;;;;;;2.70;1.00;;;;;;;13.60;97.91;101392.47;4935416;28;20024;-66
2022/09/18 10:29:46;;;;;;;3.85;0.68;;;;;;;13.63;96.11;101388.53;4932334;29;20075;-67
2022/09/18 10:32:29;;;;;;;1.75;0.55;;;;;;;13.64;95.48;101393.69;4932335;29;20039;-66
2022/09/18 10:34:55;;;;;;;5.32;0.85;;;;;;;13.64;95.63;101404.41;4950497;29;20031;-67
2022/09/18 10:37:29;;;;;;;4.43;0.70;;;;;;;13.63;95.75;101399.25;4933396;29;20526;-67
2022/09/18 10:39:58;;;;;;;5.28;1.67;;;;;;;13.58;96.62;101405.22;4950165;29;20031;-67
2022/09/18 10:42:26;;;;;;;2.08;0.80;;;;;;;13.52;95.30;101411.41;4933167;29;20439;-66
2022/09/18 10:44:55;;;;;;;1.73;1.33;;;;;;;13.48;95.85;101408.28;4933219;29;20035;-66
2022/09/18 10:47:26;;;;;;;5.20;1.00;;;;;;;13.50;95.42;101402.75;4950352;28;20066;-66
2022/09/18 10:50:01;;;;;;;3.75;0.93;;;;;;;13.42;95.98;101411.78;4953462;29;20027;-66
2022/09/18 10:52:40;;;;;;;3.58;0.90;;;;;;;13.33;95.64;101419.16;4954150;28;20062;-67
2022/09/18 10:55:06;;;;;;;5.50;1.70;;;;;;;13.19;97.51;101430.81;4953866;28;20050;-66
2022/09/18 10:57:37;;;;;;;0.57;0.57;;;;;;;12.94;95.50;101425.13;4953806;29;20474;-66
2022/09/18 11:00:15;;;;;;;2.03;0.60;;;;;;;12.68;95.85;101429.34;4953629;28;20046;-66
2022/09/18 11:02:53;;;;;;;2.42;0.52;;;;;;;12.51;97.12;101417.28;4953623;29;20043;-66
2022/09/18 11:05:34;;;;;;;1.13;0.80;;;;;;;12.45;99.42;101408.19;4953350;29;20050;-66
2022/09/18 11:08:04;;;;;;;2.85;1.30;;;;;;;12.46;100.00;101406.34;4953358;28;20037;-66
2022/09/18 11:10:35;;;;;;;4.53;0.85;;;;;;;12.55;100.00;101415.03;4953611;29;20023;-66
2022/09/18 11:13:02;;;;;;;2.70;0.98;;;;;;;12.68;100.00;101410.59;4953013;28;20109;-66
2022/09/18 11:15:30;;;;;;;4.43;1.60;;;;;;;12.83;100.00;101406.97;4953130;29;20037;-66
2022/09/18 11:17:59;;;;;;;1.50;0.60;;;;;;;12.87;100.00;101402.88;4953212;29;20052;-66
2022/09/18 11:20:40;;;;;;;3.38;1.08;;;;;;;12.97;100.00;101405.16;4953518;29;20058;-66
2022/09/18 11:23:21;;;;;;;1.13;0.60;;;;;;;13.03;100.00;101409.75;4953178;29;20133;-67
2022/09/18 11:25:47;;;;;;;3.77;1.00;;;;;;;13.00;100.00;101412.84;4953414;29;20038;-66
2022/09/18 11:28:31;;;;;;;2.45;0.70;;;;;;;13.04;100.00;101414.06;4936092;29;20073;-66
2022/09/18 11:31:05;;;;;;;0.47;0.47;;;;;;;13.00;100.00;101399.44;4942607;28;20074;-68
2022/09/18 11:33:44;;;;;;;3.97;1.23;;;;;;;12.96;100.00;101409.72;4938606;28;20031;-68